createdAt,value
2022-08-25T00:01:10.715Z,3.65
2022-08-25T00:03:39.579Z,3.80
2022-08-25T00:06:10.449Z,3.67
2022-08-25T00:08:39.192Z,3.92
2022-08-25T00:11:09.577Z,3.80
2022-08-25T00:13:36.756Z,3.95
2022-08-25T00:16:03.917Z,3.83
2022-08-25T00:18:31.103Z,3.90
2022-08-25T00:20:58.236Z,3.53
2022-08-25T00:23:25.403Z,3.80
2022-08-25T00:25:54.059Z,3.47
2022-08-25T00:28:21.402Z,3.75
2022-08-25T00:30:48.786Z,3.70
2022-08-25T00:33:16.027Z,4.03
2022-08-25T00:35:44.013Z,3.83
2022-08-25T00:38:11.715Z,3.67
2022-08-25T00:40:40.423Z,3.63
2022-08-25T00:43:09.373Z,3.60
2022-08-25T00:45:37.038Z,3.70
2022-08-25T00:48:04.962Z,3.88
2022-08-25T00:50:34.579Z,3.85
2022-08-25T00:53:04.735Z,3.80
2022-08-25T00:55:36.997Z,3.58
2022-08-25T00:58:07.828Z,4.25
2022-08-25T01:00:40.946Z,3.75
2022-08-25T01:03:11.136Z,3.67
2022-08-25T01:05:39.580Z,3.85
2022-08-25T01:08:09.130Z,3.72
2022-08-25T01:10:40.837Z,4.00
2022-08-25T01:13:16.555Z,3.75
2022-08-25T01:15:46.789Z,4.15
2022-08-25T01:18:14.882Z,3.60
2022-08-25T01:20:42.623Z,4.18
2022-08-25T01:23:11.104Z,4.03
2022-08-25T01:25:48.475Z,3.85
2022-08-25T01:28:16.911Z,3.72
2022-08-25T01:30:44.152Z,3.80
2022-08-25T01:33:12.378Z,4.15
2022-08-25T01:35:40.667Z,3.88
2022-08-25T01:38:08.849Z,3.78
2022-08-25T01:40:39.370Z,3.60
2022-08-25T01:43:12.370Z,3.70
2022-08-25T01:45:41.405Z,3.83
2022-08-25T01:48:09.229Z,3.95
2022-08-25T01:50:36.918Z,3.42
2022-08-25T01:53:08.565Z,4.20
2022-08-25T01:55:37.585Z,3.63
2022-08-25T01:58:04.816Z,3.53
2022-08-25T02:00:32.564Z,3.92
2022-08-25T02:02:59.782Z,3.85
2022-08-25T02:05:28.063Z,3.63
2022-08-25T02:07:55.343Z,3.97
2022-08-25T02:10:22.562Z,3.53
2022-08-25T02:12:51.844Z,3.92
2022-08-25T02:15:21.869Z,3.88
2022-08-25T02:17:49.038Z,3.90
2022-08-25T02:20:16.204Z,3.70
2022-08-25T02:22:43.484Z,3.97
2022-08-25T02:25:20.781Z,3.33
2022-08-25T02:27:47.924Z,3.85
2022-08-25T02:30:17.847Z,3.75
2022-08-25T02:32:45.008Z,3.35
2022-08-25T02:35:12.622Z,3.55
2022-08-25T02:37:39.778Z,3.80
2022-08-25T02:40:08.275Z,3.75
2022-08-25T02:42:35.538Z,3.58
2022-08-25T02:45:04.206Z,3.58
2022-08-25T02:47:32.687Z,3.78
2022-08-25T02:49:59.847Z,3.70
2022-08-25T02:52:27.082Z,3.65
2022-08-25T02:54:54.215Z,3.70
2022-08-25T02:57:21.419Z,3.70
2022-08-25T02:59:48.591Z,4.30
2022-08-25T03:02:15.886Z,3.60
2022-08-25T03:04:44.501Z,3.78
2022-08-25T03:07:11.749Z,3.47
2022-08-25T03:09:39.736Z,3.92
2022-08-25T03:12:07.247Z,4.05
2022-08-25T03:14:34.373Z,4.10
2022-08-25T03:17:01.594Z,3.70
2022-08-25T03:19:29.920Z,3.38
2022-08-25T03:21:58.719Z,3.72
2022-08-25T03:24:26.909Z,4.10
2022-08-25T03:26:54.419Z,3.95
2022-08-25T03:29:22.417Z,4.07
2022-08-25T03:31:49.930Z,3.75
2022-08-25T03:34:18.974Z,3.80
2022-08-25T03:36:48.961Z,3.53
2022-08-25T03:39:19.668Z,3.88
2022-08-25T03:41:46.882Z,3.95
2022-08-25T03:44:14.253Z,3.72
2022-08-25T03:46:43.965Z,3.78
2022-08-25T03:49:14.412Z,3.72
2022-08-25T03:51:44.675Z,3.83
2022-08-25T03:54:11.787Z,3.92
2022-08-25T03:56:40.323Z,4.22
2022-08-25T03:59:08.691Z,4.63
2022-08-25T04:01:36.363Z,5.15
2022-08-25T04:04:04.437Z,5.07
2022-08-25T04:06:31.658Z,4.50
2022-08-25T04:08:58.889Z,4.80
2022-08-25T04:11:27.722Z,5.25
2022-08-25T04:13:58.955Z,5.20
2022-08-25T04:16:29.164Z,5.43
2022-08-25T04:18:58.024Z,4.75
2022-08-25T04:21:25.939Z,5.28
2022-08-25T04:23:54.947Z,4.90
2022-08-25T04:26:23.986Z,4.93
2022-08-25T04:28:51.481Z,5.00
2022-08-25T04:31:21.049Z,5.22
2022-08-25T04:33:48.468Z,4.63
2022-08-25T04:36:17.413Z,4.75
2022-08-25T04:38:46.166Z,5.07
2022-08-25T04:41:15.345Z,5.13
2022-08-25T04:43:43.738Z,5.13
2022-08-25T04:46:13.392Z,5.20
2022-08-25T04:48:49.127Z,5.03
2022-08-25T04:51:19.064Z,5.05
2022-08-25T04:53:46.839Z,4.40
2022-08-25T04:56:15.587Z,4.75
2022-08-25T04:58:42.930Z,4.75
2022-08-25T05:01:12.350Z,5.18
2022-08-25T05:03:39.591Z,4.88
2022-08-25T05:06:10.917Z,4.57
2022-08-25T05:08:41.172Z,4.65
2022-08-25T05:11:09.908Z,5.03
2022-08-25T05:13:37.334Z,5.10
2022-08-25T05:16:05.094Z,4.93
2022-08-25T05:18:36.978Z,4.43
2022-08-25T05:21:06.529Z,5.03
2022-08-25T05:23:35.239Z,5.05
2022-08-25T05:26:04.563Z,4.88
2022-08-25T05:28:32.273Z,4.47
2022-08-25T05:31:00.843Z,4.88
2022-08-25T05:33:28.791Z,4.82
2022-08-25T05:35:59.643Z,4.90
2022-08-25T05:38:26.855Z,4.63
2022-08-25T05:40:57.644Z,4.65
2022-08-25T05:43:25.286Z,5.18
2022-08-25T05:45:54.022Z,4.85
2022-08-25T05:48:21.219Z,5.10
2022-08-25T05:50:51.871Z,4.55
2022-08-25T05:53:19.223Z,4.70
2022-08-25T05:55:46.542Z,4.68
2022-08-25T05:58:15.104Z,4.72
2022-08-25T06:00:44.395Z,4.53
2022-08-25T06:03:11.919Z,4.40
2022-08-25T06:05:39.542Z,4.65
2022-08-25T06:08:07.303Z,4.65
2022-08-25T06:10:35.493Z,4.55
2022-08-25T06:13:03.358Z,4.88
2022-08-25T06:15:35.596Z,4.75
2022-08-25T06:18:03.481Z,5.13
2022-08-25T06:20:31.408Z,4.63
2022-08-25T06:22:59.042Z,4.95
2022-08-25T06:25:27.229Z,4.35
2022-08-25T06:27:54.948Z,4.30
2022-08-25T06:30:25.738Z,4.65
2022-08-25T06:35:24.096Z,4.30
2022-08-25T06:37:51.239Z,4.90
2022-08-25T06:40:18.627Z,4.38
2022-08-25T06:42:48.369Z,4.80
2022-08-25T06:45:15.650Z,4.50
2022-08-25T06:47:42.819Z,4.60
2022-08-25T06:50:14.058Z,4.78
2022-08-25T06:52:41.189Z,4.68
2022-08-25T06:55:09.083Z,4.63
2022-08-25T06:57:36.226Z,4.35
2022-08-25T07:00:05.523Z,4.60
2022-08-25T07:02:32.779Z,4.60
2022-08-25T07:05:02.603Z,4.43
2022-08-25T07:07:43.252Z,4.43
2022-08-25T07:10:11.579Z,5.30
2022-08-25T07:12:39.087Z,4.30
2022-08-25T07:15:21.942Z,4.50
2022-08-25T07:17:49.520Z,4.40
2022-08-25T07:20:19.382Z,4.50
2022-08-25T07:22:48.231Z,4.75
2022-08-25T07:25:15.438Z,4.22
2022-08-25T07:27:45.567Z,4.78
2022-08-25T07:30:12.900Z,5.00
2022-08-25T07:32:41.963Z,4.72
2022-08-25T07:35:11.124Z,4.43
2022-08-25T07:37:48.777Z,4.68
2022-08-25T07:40:22.327Z,4.88
2022-08-25T07:42:50.737Z,4.65
2022-08-25T07:45:20.620Z,4.63
2022-08-25T07:47:51.586Z,4.35
2022-08-25T07:50:19.298Z,4.95
2022-08-25T07:52:52.172Z,4.30
2022-08-25T07:55:24.418Z,4.43
2022-08-25T07:57:54.027Z,4.55
2022-08-25T08:00:24.388Z,4.43
2022-08-25T08:02:51.898Z,4.50
2022-08-25T08:05:20.716Z,4.30
2022-08-25T08:07:51.160Z,4.57
2022-08-25T08:10:47.921Z,4.53
2022-08-25T08:13:09.403Z,4.70
2022-08-25T08:15:37.519Z,4.68
2022-08-25T08:18:04.739Z,4.68
2022-08-25T08:20:42.636Z,4.25
2022-08-25T08:23:10.601Z,4.35
2022-08-25T08:25:37.926Z,4.63
2022-08-25T08:28:07.264Z,4.78
2022-08-25T08:30:36.079Z,4.22
2022-08-25T08:33:10.098Z,4.43
2022-08-25T08:35:38.926Z,4.50
2022-08-25T08:38:13.135Z,4.82
2022-08-25T08:40:48.180Z,4.57
2022-08-25T08:43:21.228Z,4.70
2022-08-25T08:45:53.876Z,5.00
2022-08-25T08:48:43.103Z,4.43
2022-08-25T08:51:20.409Z,4.43
2022-08-25T08:53:55.657Z,4.70
2022-08-25T08:56:30.821Z,4.97
2022-08-25T08:59:06.095Z,4.85
2022-08-25T09:01:46.050Z,4.45
2022-08-25T09:04:20.925Z,4.63
2022-08-25T09:06:51.974Z,4.95
2022-08-25T09:09:26.494Z,4.57
2022-08-25T09:12:02.491Z,4.68
2022-08-25T09:14:45.458Z,4.70
2022-08-25T09:17:21.623Z,5.00
2022-08-25T09:20:18.162Z,4.75
2022-08-25T09:22:59.168Z,4.57
2022-08-25T09:25:52.941Z,4.57
2022-08-25T09:28:30.187Z,4.68
2022-08-25T09:31:01.046Z,4.72
2022-08-25T09:33:33.675Z,4.97
2022-08-25T09:36:06.281Z,4.90
2022-08-25T09:38:36.674Z,4.80
2022-08-25T09:41:04.368Z,5.20
2022-08-25T09:43:34.742Z,4.63
2022-08-25T09:46:08.873Z,5.18
2022-08-25T09:48:45.301Z,4.93
2022-08-25T09:51:20.300Z,4.95
2022-08-25T09:53:54.410Z,4.82
2022-08-25T09:58:51.042Z,4.75
2022-08-25T10:01:20.701Z,4.93
2022-08-25T10:04:02.349Z,5.13
2022-08-25T10:06:34.914Z,4.40
2022-08-25T10:09:05.857Z,4.87
2022-08-25T10:11:39.852Z,4.60
2022-08-25T10:16:42.526Z,5.20
2022-08-25T10:19:25.350Z,4.90
2022-08-25T10:22:07.157Z,4.60
2022-08-25T10:24:35.819Z,5.20
2022-08-25T10:27:15.951Z,4.97
2022-08-25T10:30:15.816Z,4.53
2022-08-25T10:32:57.903Z,4.70
2022-08-25T10:35:30.978Z,5.05
2022-08-25T10:38:07.892Z,4.85
2022-08-25T10:40:46.129Z,4.82
2022-08-25T10:43:23.862Z,5.10
2022-08-25T10:45:58.428Z,4.72
2022-08-25T10:48:40.098Z,4.60
2022-08-25T10:51:31.549Z,5.13
2022-08-25T10:54:07.786Z,4.78
2022-08-25T10:56:40.842Z,4.95
2022-08-25T10:59:27.509Z,4.88
2022-08-25T11:02:25.170Z,4.53
2022-08-25T11:04:58.126Z,4.90
2022-08-25T11:07:31.834Z,5.18
2022-08-25T11:10:05.303Z,4.85
2022-08-25T11:12:35.758Z,4.80
2022-08-25T11:15:08.888Z,4.88
2022-08-25T11:17:42.820Z,4.75
2022-08-25T11:20:26.493Z,5.20
2022-08-25T11:23:08.794Z,5.32
2022-08-25T11:25:43.595Z,5.13
2022-08-25T11:28:16.156Z,4.63
2022-08-25T11:30:43.378Z,5.00
2022-08-25T11:33:13.699Z,5.22
2022-08-25T11:35:45.556Z,4.57
2022-08-25T11:38:29.030Z,4.82
2022-08-25T11:41:11.140Z,4.68
2022-08-25T11:43:55.625Z,4.97
2022-08-25T11:46:47.764Z,4.93
2022-08-25T11:49:35.744Z,4.90
2022-08-25T11:52:04.786Z,4.95
2022-08-25T11:54:38.662Z,5.20
2022-08-25T11:57:18.074Z,5.07
2022-08-25T12:00:09.414Z,4.65
2022-08-25T12:02:40.098Z,5.43
2022-08-25T12:05:09.882Z,5.20
2022-08-25T12:08:00.369Z,5.28
2022-08-25T12:10:55.164Z,4.72
2022-08-25T12:13:45.314Z,5.28
2022-08-25T12:16:42.394Z,5.25
2022-08-25T12:19:38.603Z,5.18
2022-08-25T12:22:41.234Z,4.93
2022-08-25T12:25:20.971Z,5.25
2022-08-25T12:28:04.604Z,5.07
2022-08-25T12:30:45.705Z,4.57
2022-08-25T12:33:21.310Z,5.25
2022-08-25T12:35:57.030Z,5.00
2022-08-25T12:38:33.088Z,4.80
2022-08-25T12:41:07.076Z,5.53
2022-08-25T12:43:38.568Z,5.20
2022-08-25T12:46:42.110Z,5.20
2022-08-25T12:49:28.457Z,5.43
2022-08-25T12:52:04.787Z,4.63
2022-08-25T12:54:43.892Z,4.97
2022-08-25T12:57:29.439Z,5.25
2022-08-25T13:00:02.017Z,5.05
2022-08-25T13:03:02.771Z,4.80
2022-08-25T13:06:00.008Z,5.25
2022-08-25T13:08:46.674Z,5.53
2022-08-25T13:11:20.281Z,5.22
2022-08-25T13:13:56.460Z,5.40
2022-08-25T13:16:29.663Z,5.07
2022-08-25T13:18:58.541Z,5.18
2022-08-25T13:21:30.480Z,5.50
2022-08-25T13:24:04.583Z,5.40
2022-08-25T13:26:34.827Z,5.25
2022-08-25T13:29:13.269Z,5.43
2022-08-25T13:31:55.713Z,5.05
2022-08-25T13:34:34.481Z,5.03
2022-08-25T13:37:07.340Z,5.40
2022-08-25T13:42:24.499Z,4.90
2022-08-25T13:47:43.320Z,5.30
2022-08-25T13:50:18.316Z,5.32
2022-08-25T13:52:51.173Z,4.93
2022-08-25T13:55:23.042Z,5.65
2022-08-25T13:57:57.168Z,5.43
2022-08-25T14:00:32.431Z,4.80
2022-08-25T14:03:08.678Z,5.15
2022-08-25T14:05:42.278Z,5.18
2022-08-25T14:08:31.373Z,5.18
2022-08-25T14:11:06.877Z,5.43
2022-08-25T14:13:43.754Z,5.40
2022-08-25T14:16:14.755Z,5.28
2022-08-25T14:18:50.975Z,5.67
2022-08-25T14:21:20.267Z,5.63
2022-08-25T14:23:47.507Z,4.82
2022-08-25T14:26:14.642Z,4.78
2022-08-25T14:28:41.833Z,5.10
2022-08-25T14:31:15.344Z,5.22
2022-08-25T14:33:54.716Z,5.15
2022-08-25T14:36:21.907Z,5.38
2022-08-25T14:38:54.956Z,5.18
2022-08-25T14:41:23.201Z,5.05
2022-08-25T14:43:50.508Z,5.35
2022-08-25T14:46:21.123Z,4.88
2022-08-25T14:48:53.422Z,5.28
2022-08-25T14:51:23.766Z,5.38
2022-08-25T14:53:54.137Z,4.78
2022-08-25T14:56:21.361Z,5.38
2022-08-25T14:58:51.435Z,5.32
2022-08-25T15:01:29.168Z,5.40
2022-08-25T15:04:03.509Z,5.13
2022-08-25T15:08:58.120Z,5.10
2022-08-25T15:11:25.579Z,4.78
2022-08-25T15:13:53.656Z,5.05
2022-08-25T15:16:34.024Z,5.20
2022-08-25T15:19:06.652Z,4.80
2022-08-25T15:21:34.792Z,5.18
2022-08-25T15:24:03.422Z,5.18
2022-08-25T15:26:30.761Z,5.45
2022-08-25T15:28:59.513Z,5.30
2022-08-25T15:31:26.742Z,5.40
2022-08-25T15:33:54.022Z,5.53
2022-08-25T15:36:25.698Z,6.15
2022-08-25T15:38:53.085Z,6.50
2022-08-25T15:41:20.613Z,6.45
2022-08-25T15:43:51.648Z,6.85
2022-08-25T15:46:21.527Z,6.40
2022-08-25T15:48:48.728Z,6.40
2022-08-25T15:51:17.249Z,5.88
2022-08-25T15:53:45.879Z,6.57
2022-08-25T15:56:13.801Z,6.20
2022-08-25T15:58:49.796Z,6.45
2022-08-25T16:01:19.647Z,6.22
2022-08-25T16:03:47.044Z,6.10
2022-08-25T16:06:14.257Z,6.28
2022-08-25T16:08:41.549Z,5.72
2022-08-25T16:11:18.521Z,6.38
2022-08-25T16:13:46.125Z,6.03
2022-08-25T16:16:13.565Z,6.22
2022-08-25T16:18:40.822Z,6.03
2022-08-25T16:21:12.526Z,6.00
2022-08-25T16:23:40.627Z,6.97
2022-08-25T16:26:09.881Z,7.00
2022-08-25T16:28:39.380Z,6.80
2022-08-25T16:31:14.018Z,6.70
2022-08-25T16:36:16.233Z,6.25
2022-08-25T16:38:48.976Z,6.78
2022-08-25T16:41:19.575Z,6.60
2022-08-25T16:43:49.862Z,5.50
2022-08-25T16:46:19.169Z,6.00
2022-08-25T16:48:47.151Z,6.32
2022-08-25T16:51:16.804Z,6.50
2022-08-25T16:53:47.334Z,6.25
2022-08-25T16:56:15.984Z,6.15
2022-08-25T16:58:43.665Z,6.60
2022-08-25T17:01:14.340Z,6.15
2022-08-25T17:03:43.905Z,6.10
2022-08-25T17:06:11.828Z,6.60
2022-08-25T17:08:39.782Z,6.53
2022-08-25T17:11:09.399Z,9.05
2022-08-25T17:13:38.422Z,21.98
2022-08-25T17:16:06.503Z,17.15
2022-08-25T17:18:36.015Z,10.95
2022-08-25T17:21:06.466Z,12.48
2022-08-25T17:23:35.256Z,18.45
2022-08-25T17:26:03.825Z,23.85
2022-08-25T17:28:33.070Z,20.13
2022-08-25T17:31:01.137Z,15.90
2022-08-25T17:33:28.380Z,12.02
2022-08-25T17:35:57.729Z,11.98
2022-08-25T17:38:26.777Z,10.68
2022-08-25T17:40:57.909Z,9.32
2022-08-25T17:43:26.402Z,8.70
2022-08-25T17:45:55.940Z,8.55
2022-08-25T17:48:24.866Z,8.13
2022-08-25T17:50:54.019Z,7.97
2022-08-25T17:53:22.543Z,8.30
2022-08-25T17:55:57.343Z,8.18
2022-08-25T17:58:25.571Z,7.47
2022-08-25T18:00:55.053Z,8.52
2022-08-25T18:03:22.379Z,8.30
2022-08-25T18:05:49.581Z,8.13
2022-08-25T18:08:16.990Z,7.68
2022-08-25T18:10:45.758Z,7.63
2022-08-25T18:13:13.017Z,6.72
2022-08-25T18:15:42.726Z,7.10
2022-08-25T18:18:12.574Z,7.47
2022-08-25T18:20:40.808Z,7.10
2022-08-25T18:23:10.910Z,6.55
2022-08-25T18:25:41.722Z,7.70
2022-08-25T18:28:10.587Z,8.10
2022-08-25T18:30:38.260Z,8.20
2022-08-25T18:33:05.809Z,7.68
2022-08-25T18:35:33.029Z,7.97
2022-08-25T18:38:00.267Z,7.60
2022-08-25T18:40:28.489Z,7.55
2022-08-25T18:42:57.895Z,7.35
2022-08-25T18:45:28.549Z,7.53
2022-08-25T18:47:55.835Z,7.43
2022-08-25T18:50:24.668Z,7.82
2022-08-25T18:52:51.949Z,7.82
2022-08-25T18:55:23.119Z,7.22
2022-08-25T18:57:51.294Z,8.45
2022-08-25T19:00:22.626Z,8.40
2022-08-25T19:02:54.165Z,7.32
2022-08-25T19:05:25.823Z,7.85
2022-08-25T19:07:53.657Z,8.13
2022-08-25T19:10:21.535Z,7.53
2022-08-25T19:12:52.199Z,7.65
2022-08-25T19:15:24.762Z,7.95
2022-08-25T19:17:54.379Z,7.70
2022-08-25T19:20:23.590Z,7.25
2022-08-25T19:22:51.288Z,7.53
2022-08-25T19:25:19.881Z,7.40
2022-08-25T19:27:47.697Z,7.18
2022-08-25T19:30:18.095Z,7.80
2022-08-25T19:32:47.184Z,7.85
2022-08-25T19:35:19.895Z,7.43
2022-08-25T19:37:47.366Z,7.90
2022-08-25T19:40:14.999Z,7.57
2022-08-25T19:42:45.750Z,7.20
2022-08-25T19:45:14.183Z,7.68
2022-08-25T19:47:41.413Z,7.72
2022-08-25T19:50:09.616Z,7.40
2022-08-25T19:52:38.265Z,7.30
2022-08-25T19:55:06.642Z,7.05
2022-08-25T19:57:42.415Z,7.75
2022-08-25T20:00:15.481Z,6.72
2022-08-25T20:02:43.328Z,7.22
2022-08-25T20:05:11.154Z,7.15
2022-08-25T20:07:40.744Z,7.13
2022-08-25T20:10:13.962Z,7.10
2022-08-25T20:12:41.995Z,7.18
2022-08-25T20:15:09.221Z,6.72
2022-08-25T20:17:36.392Z,6.70
2022-08-25T20:20:07.150Z,6.10
2022-08-25T20:22:36.362Z,7.15
2022-08-25T20:25:13.102Z,6.90
2022-08-25T20:27:43.561Z,6.95
2022-08-25T20:30:14.375Z,6.90
2022-08-25T20:32:44.207Z,6.50
2022-08-25T20:35:13.410Z,7.20
2022-08-25T20:37:41.582Z,7.25
2022-08-25T20:40:13.487Z,6.45
2022-08-25T20:42:40.799Z,7.07
2022-08-25T20:45:12.037Z,6.53
2022-08-25T20:47:39.383Z,6.28
2022-08-25T20:50:08.928Z,6.65
2022-08-25T20:52:36.883Z,6.75
2022-08-25T20:55:08.212Z,6.47
2022-08-25T20:57:36.718Z,6.75
2022-08-25T21:00:06.300Z,6.03
2022-08-25T21:02:34.440Z,6.28
2022-08-25T21:05:03.006Z,6.90
2022-08-25T21:07:30.370Z,6.50
2022-08-25T21:09:57.994Z,6.53
2022-08-25T21:12:25.165Z,6.38
2022-08-25T21:14:55.395Z,6.88
2022-08-25T21:17:22.614Z,6.00
2022-08-25T21:19:49.726Z,7.05
2022-08-25T21:22:17.019Z,6.25
2022-08-25T21:24:44.170Z,6.20
2022-08-25T21:27:11.823Z,6.25
2022-08-25T21:29:39.014Z,6.40
2022-08-25T21:32:13.316Z,6.55
2022-08-25T21:34:40.466Z,6.00
2022-08-25T21:37:07.598Z,6.40
2022-08-25T21:39:35.017Z,6.10
2022-08-25T21:42:04.048Z,6.70
2022-08-25T21:44:31.210Z,6.43
2022-08-25T21:46:58.351Z,6.43
2022-08-25T21:49:26.898Z,5.78
2022-08-25T21:52:02.411Z,6.78
2022-08-25T21:54:31.615Z,6.07
2022-08-25T21:57:01.448Z,6.13
2022-08-25T21:59:31.038Z,6.15
2022-08-25T22:02:00.664Z,6.30
2022-08-25T22:04:30.676Z,6.28
2022-08-25T22:06:59.265Z,6.43
2022-08-25T22:09:28.403Z,6.53
2022-08-25T22:11:56.140Z,5.60
2022-08-25T22:14:26.125Z,5.90
2022-08-25T22:16:53.575Z,6.03
2022-08-25T22:19:22.792Z,6.90
2022-08-25T22:21:52.786Z,6.85
2022-08-25T22:24:20.175Z,6.07
2022-08-25T22:26:48.609Z,6.32
2022-08-25T22:29:24.787Z,6.38
2022-08-25T22:31:53.414Z,6.30
2022-08-25T22:34:30.508Z,5.80
2022-08-25T22:37:01.177Z,6.22
2022-08-25T22:39:29.365Z,6.43
2022-08-25T22:41:56.503Z,6.35
2022-08-25T22:44:23.712Z,6.55
2022-08-25T22:46:50.914Z,5.68
2022-08-25T22:49:18.074Z,6.15
2022-08-25T22:51:46.982Z,6.07
2022-08-25T22:54:16.508Z,6.22
2022-08-25T22:56:43.679Z,5.97
2022-08-25T22:59:12.556Z,6.35
2022-08-25T23:01:41.018Z,6.05
2022-08-25T23:04:08.329Z,5.93
2022-08-25T23:06:35.584Z,6.47
2022-08-25T23:09:05.115Z,6.03
2022-08-25T23:11:33.948Z,6.13
2022-08-25T23:14:01.085Z,5.95
2022-08-25T23:16:29.129Z,6.55
2022-08-25T23:18:56.325Z,6.20
2022-08-25T23:21:24.317Z,6.10
2022-08-25T23:23:52.143Z,5.90
2022-08-25T23:26:19.648Z,6.05
2022-08-25T23:28:48.957Z,6.07
2022-08-25T23:31:17.282Z,6.15
2022-08-25T23:33:44.646Z,5.78
2022-08-25T23:36:14.393Z,6.55
2022-08-25T23:38:44.802Z,5.65
2022-08-25T23:41:21.730Z,6.28
2022-08-25T23:43:52.230Z,6.25
2022-08-25T23:46:24.858Z,5.80
2022-08-25T23:48:55.091Z,5.90
2022-08-25T23:51:24.302Z,5.95
2022-08-25T23:53:51.841Z,5.82
2022-08-25T23:56:18.964Z,6.05
2022-08-25T23:58:46.156Z,5.95
